createdAt,value
2019-03-03T00:00:45.898Z,77.50
2019-03-03T00:01:45.863Z,77.67
2019-03-03T00:02:45.855Z,77.56
2019-03-03T00:03:45.834Z,77.26
2019-03-03T00:04:45.834Z,77.56
2019-03-03T00:05:45.847Z,77.47
2019-03-03T00:06:45.833Z,77.77
2019-03-03T00:07:45.807Z,77.98
2019-03-03T00:08:45.787Z,77.77
2019-03-03T00:09:45.784Z,77.98
2019-03-03T00:10:45.763Z,77.87
2019-03-03T00:11:45.762Z,77.98
2019-03-03T00:12:45.738Z,77.77
2019-03-03T00:13:45.738Z,77.77
2019-03-03T00:14:45.727Z,77.98
2019-03-03T00:15:45.714Z,77.94
2019-03-03T00:16:45.699Z,77.56
2019-03-03T00:17:45.707Z,77.74
2019-03-03T00:18:45.686Z,77.74
2019-03-03T00:19:45.680Z,77.56
2019-03-03T00:20:45.653Z,77.56
2019-03-03T00:21:45.644Z,77.77
2019-03-03T00:22:45.653Z,78.39
2019-03-03T00:23:45.642Z,78.88
2019-03-03T00:24:45.642Z,78.25
2019-03-03T00:25:45.620Z,78.98
2019-03-03T00:26:45.599Z,78.46
2019-03-03T00:27:45.576Z,77.77
2019-03-03T00:28:45.571Z,78.05
2019-03-03T00:29:45.562Z,78.19
2019-03-03T00:30:45.542Z,78.60
2019-03-03T00:31:45.588Z,78.29
2019-03-03T00:32:45.522Z,78.39
2019-03-03T00:33:45.512Z,78.56
2019-03-03T00:34:45.508Z,78.81
2019-03-03T00:35:45.516Z,78.56
2019-03-03T00:36:45.480Z,79.29
2019-03-03T00:37:45.462Z,78.88
2019-03-03T00:38:45.451Z,78.15
2019-03-03T00:39:45.447Z,78.42
2019-03-03T00:40:45.459Z,77.70
2019-03-03T00:41:45.451Z,77.50
2019-03-03T00:42:45.414Z,77.81
2019-03-03T00:43:45.412Z,77.70
2019-03-03T00:44:46.049Z,77.50
2019-03-03T00:45:45.393Z,77.91
2019-03-03T00:46:45.375Z,78.42
2019-03-03T00:47:45.347Z,78.84
2019-03-03T00:48:45.348Z,78.32
2019-03-03T00:49:45.333Z,78.22
2019-03-03T00:50:45.320Z,78.22
2019-03-03T00:51:45.325Z,78.01
2019-03-03T00:52:45.337Z,78.36
2019-03-03T00:53:45.294Z,78.53
2019-03-03T00:54:45.275Z,78.32
2019-03-03T00:55:45.275Z,78.22
2019-03-03T00:56:45.260Z,78.53
2019-03-03T00:57:45.262Z,78.94
2019-03-03T00:58:45.281Z,78.32
2019-03-03T00:59:45.228Z,78.74
2019-03-03T01:00:45.203Z,78.74
2019-03-03T01:01:45.203Z,78.63
2019-03-03T01:02:45.200Z,78.53
2019-03-03T01:03:45.216Z,78.53
2019-03-03T01:04:45.178Z,79.05
2019-03-03T01:05:45.158Z,78.84
2019-03-03T01:06:45.142Z,78.84
2019-03-03T01:07:45.135Z,78.94
2019-03-03T01:08:45.132Z,79.22
2019-03-03T01:09:45.145Z,79.25
2019-03-03T01:10:45.105Z,78.94
2019-03-03T01:11:45.088Z,79.05
2019-03-03T01:12:52.236Z,78.80
2019-03-03T01:14:15.692Z,79.15
2019-03-03T01:15:15.657Z,79.46
2019-03-03T01:16:57.345Z,79.01
2019-03-03T01:18:59.898Z,79.11
2019-03-03T01:20:06.616Z,79.32
2019-03-03T01:21:48.287Z,79.52
2019-03-03T01:22:48.285Z,79.52
2019-03-03T01:24:11.721Z,80.15
2019-03-03T01:25:11.691Z,81.07
2019-03-03T01:26:53.363Z,81.49
2019-03-03T01:27:53.351Z,82.62
2019-03-03T01:29:35.589Z,82.93
2019-03-03T01:30:35.181Z,83.55
2019-03-03T01:32:16.840Z,83.70
2019-03-03T01:33:16.837Z,83.86
2019-03-03T01:34:59.095Z,84.94
2019-03-03T01:35:58.874Z,84.83
2019-03-03T01:37:41.873Z,85.55
2019-03-03T01:38:41.888Z,85.86
2019-03-03T01:39:41.827Z,85.66
2019-03-03T01:40:41.826Z,85.52
2019-03-03T01:41:41.801Z,85.97
2019-03-03T01:42:41.804Z,86.07
2019-03-03T01:43:41.785Z,86.24
2019-03-03T01:44:41.787Z,86.03
2019-03-03T01:45:41.765Z,85.83
2019-03-03T01:46:41.754Z,85.97
2019-03-03T01:47:41.738Z,86.03
2019-03-03T01:48:41.728Z,85.97
2019-03-03T01:49:41.723Z,85.93
2019-03-03T01:50:41.706Z,86.07
2019-03-03T01:51:41.698Z,86.07
2019-03-03T01:52:41.688Z,86.03
2019-03-03T01:53:41.682Z,85.93
2019-03-03T01:54:41.671Z,85.97
2019-03-03T01:55:41.656Z,85.93
2019-03-03T01:56:41.646Z,86.18
2019-03-03T01:57:41.646Z,86.18
2019-03-03T01:58:41.630Z,85.66
2019-03-03T01:59:41.618Z,86.55
2019-03-03T02:00:41.603Z,86.13
2019-03-03T02:01:41.628Z,86.90
2019-03-03T02:02:41.581Z,86.59
2019-03-03T02:03:41.584Z,87.10
2019-03-03T02:04:41.561Z,87.07
2019-03-03T02:05:41.558Z,87.58
2019-03-03T02:06:41.579Z,87.17
2019-03-03T02:07:41.538Z,86.79
2019-03-03T02:08:41.514Z,87.07
2019-03-03T02:09:41.514Z,86.69
2019-03-03T02:10:41.496Z,86.65
2019-03-03T02:11:41.507Z,86.69
2019-03-03T02:12:41.475Z,86.65
2019-03-03T02:13:41.457Z,86.86
2019-03-03T02:14:41.453Z,86.65
2019-03-03T02:15:41.450Z,87.37
2019-03-03T02:16:41.445Z,87.48
2019-03-03T02:17:41.427Z,87.89
2019-03-03T02:18:41.441Z,87.68
2019-03-03T02:19:41.402Z,88.71
2019-03-03T02:20:41.394Z,88.10
2019-03-03T02:21:41.384Z,88.20
2019-03-03T02:22:41.372Z,88.14
2019-03-03T02:23:41.357Z,88.51
2019-03-03T02:24:41.357Z,88.31
2019-03-03T02:25:41.333Z,88.20
2019-03-03T02:26:41.328Z,88.51
2019-03-03T02:27:41.318Z,88.41
2019-03-03T02:28:41.298Z,88.41
2019-03-03T02:29:41.292Z,89.23
2019-03-03T02:30:41.269Z,87.99
2019-03-03T02:31:41.266Z,87.79
2019-03-03T02:32:41.269Z,87.58
2019-03-03T02:33:41.257Z,87.79
2019-03-03T02:34:41.297Z,88.31
2019-03-03T02:35:41.227Z,87.85
2019-03-03T02:36:41.216Z,87.99
2019-03-03T02:37:41.210Z,87.58
2019-03-03T02:38:41.208Z,87.89
2019-03-03T02:39:41.218Z,87.27
2019-03-03T02:40:41.174Z,88.16
2019-03-03T02:41:41.165Z,88.06
2019-03-03T02:42:41.146Z,88.10
2019-03-03T02:43:41.169Z,88.82
2019-03-03T02:44:41.156Z,88.98
2019-03-03T02:45:41.115Z,89.34
2019-03-03T02:46:41.104Z,88.78
2019-03-03T02:47:41.108Z,89.40
2019-03-03T02:48:41.122Z,89.61
2019-03-03T02:49:41.078Z,89.50
2019-03-03T02:50:41.087Z,89.71
2019-03-03T02:51:41.050Z,89.81
2019-03-03T02:52:48.234Z,90.53
2019-03-03T02:54:11.634Z,90.64
2019-03-03T02:55:18.749Z,90.78
2019-03-03T02:56:53.265Z,91.16
2019-03-03T02:57:53.254Z,90.84
2019-03-03T02:59:35.409Z,90.99
2019-03-03T03:00:35.389Z,90.95
2019-03-03T03:01:35.377Z,91.20
2019-03-03T03:02:35.375Z,91.36
2019-03-03T03:03:35.359Z,91.36
2019-03-03T03:04:35.345Z,91.09
2019-03-03T03:05:42.484Z,91.05
2019-03-03T03:07:16.995Z,91.26
2019-03-03T03:08:16.975Z,91.05
2019-03-03T03:09:58.861Z,91.05
2019-03-03T03:10:58.814Z,91.16
2019-03-03T03:12:40.463Z,91.05
2019-03-03T03:13:40.450Z,91.36
2019-03-03T03:14:40.437Z,91.05
2019-03-03T03:15:40.629Z,91.36
2019-03-03T03:16:40.429Z,91.36
2019-03-03T03:17:40.455Z,91.16
2019-03-03T03:18:40.395Z,91.05
2019-03-03T03:19:40.412Z,91.36
2019-03-03T03:20:40.390Z,91.36
2019-03-03T03:21:40.432Z,91.26
2019-03-03T03:22:40.351Z,91.36
2019-03-03T03:23:40.365Z,91.26
2019-03-03T03:24:40.331Z,91.05
2019-03-03T03:25:40.329Z,91.36
2019-03-03T03:26:40.315Z,91.16
2019-03-03T03:27:40.307Z,91.16
2019-03-03T03:28:40.294Z,91.16
2019-03-03T03:29:40.267Z,91.56
2019-03-03T03:30:40.271Z,91.26
2019-03-03T03:31:40.246Z,91.36
2019-03-03T03:32:40.249Z,91.36
2019-03-03T03:33:40.231Z,91.05
2019-03-03T03:34:40.237Z,91.46
2019-03-03T03:35:40.208Z,91.16
2019-03-03T03:36:40.240Z,91.26
2019-03-03T03:37:40.187Z,91.36
2019-03-03T03:38:40.176Z,91.36
2019-03-03T03:39:40.166Z,91.26
2019-03-03T03:40:40.149Z,91.16
2019-03-03T03:41:40.141Z,91.36
2019-03-03T03:42:40.156Z,91.16
2019-03-03T03:43:40.122Z,91.36
2019-03-03T03:44:40.107Z,91.05
2019-03-03T03:45:40.097Z,91.26
2019-03-03T03:46:40.084Z,91.26
2019-03-03T03:47:40.122Z,91.05
2019-03-03T03:48:40.082Z,91.46
2019-03-03T03:49:40.062Z,91.36
2019-03-03T03:50:40.036Z,91.52
2019-03-03T03:51:40.033Z,91.42
2019-03-03T03:52:40.019Z,91.52
2019-03-03T03:53:40.013Z,91.32
2019-03-03T03:54:39.994Z,90.91
2019-03-03T03:55:39.990Z,90.59
2019-03-03T03:56:39.976Z,90.70
2019-03-03T03:57:40.000Z,90.70
2019-03-03T03:58:40.034Z,90.80
2019-03-03T03:59:39.938Z,90.91
2019-03-03T04:00:39.935Z,91.01
2019-03-03T04:01:39.914Z,90.91
2019-03-03T04:02:39.905Z,91.01
2019-03-03T04:03:39.898Z,90.59
2019-03-03T04:04:39.885Z,90.28
2019-03-03T04:05:39.882Z,90.28
2019-03-03T04:06:39.861Z,89.98
2019-03-03T04:07:39.847Z,90.59
2019-03-03T04:08:39.839Z,90.28
2019-03-03T04:09:39.839Z,90.49
2019-03-03T04:10:39.838Z,90.19
2019-03-03T04:11:39.811Z,90.39
2019-03-03T04:12:39.811Z,90.39
2019-03-03T04:13:39.852Z,90.28
2019-03-03T04:14:39.774Z,90.59
2019-03-03T04:15:39.770Z,89.87
2019-03-03T04:16:39.748Z,90.08
2019-03-03T04:17:39.743Z,89.98
2019-03-03T04:18:39.727Z,90.49
2019-03-03T04:19:39.720Z,91.32
2019-03-03T04:20:39.701Z,91.22
2019-03-03T04:21:39.718Z,90.19
2019-03-03T04:22:39.747Z,90.49
2019-03-03T04:23:39.671Z,90.39
2019-03-03T04:24:39.670Z,90.66
2019-03-03T04:25:39.647Z,90.35
2019-03-03T04:26:39.642Z,90.35
2019-03-03T04:27:39.657Z,90.25
2019-03-03T04:28:39.613Z,89.52
2019-03-03T04:29:39.653Z,89.42
2019-03-03T04:30:39.605Z,89.52
2019-03-03T04:31:39.608Z,89.42
2019-03-03T04:32:39.575Z,89.62
2019-03-03T04:33:39.557Z,89.42
2019-03-03T04:34:39.551Z,89.52
2019-03-03T04:35:39.534Z,89.52
2019-03-03T04:36:39.530Z,89.22
2019-03-03T04:37:39.514Z,89.07
2019-03-03T04:38:39.525Z,89.11
2019-03-03T04:39:39.494Z,89.11
2019-03-03T04:40:39.495Z,89.07
2019-03-03T04:41:39.471Z,89.22
2019-03-03T04:42:39.466Z,89.11
2019-03-03T04:43:39.471Z,88.65
2019-03-03T04:44:39.431Z,88.56
2019-03-03T04:45:39.430Z,88.56
2019-03-03T04:46:39.458Z,88.45
2019-03-03T04:47:39.444Z,88.35
2019-03-03T04:48:39.390Z,88.56
2019-03-03T04:49:39.591Z,87.93
2019-03-03T04:50:39.388Z,88.14
2019-03-03T04:51:39.355Z,88.04
2019-03-03T04:52:39.357Z,88.14
2019-03-03T04:53:39.339Z,88.65
2019-03-03T04:54:39.323Z,88.56
2019-03-03T04:55:39.312Z,88.14
2019-03-03T04:56:39.306Z,88.56
2019-03-03T04:57:39.289Z,88.35
2019-03-03T04:58:39.281Z,88.45
2019-03-03T04:59:39.278Z,88.14
2019-03-03T05:00:39.257Z,87.79
2019-03-03T05:01:39.243Z,87.83
2019-03-03T05:02:39.235Z,88.04
2019-03-03T05:03:39.223Z,88.24
2019-03-03T05:04:39.213Z,88.04
2019-03-03T05:05:39.209Z,88.35
2019-03-03T05:06:39.185Z,87.90
2019-03-03T05:07:39.175Z,88.24
2019-03-03T05:08:39.166Z,88.10
2019-03-03T05:09:39.205Z,88.35
2019-03-03T05:10:39.147Z,87.99
2019-03-03T05:11:39.139Z,87.99
2019-03-03T05:12:39.123Z,88.41
2019-03-03T05:13:39.108Z,88.31
2019-03-03T05:14:39.101Z,87.59
2019-03-03T05:15:39.089Z,87.38
2019-03-03T05:16:39.074Z,87.27
2019-03-03T05:17:39.071Z,87.17
2019-03-03T05:18:39.063Z,87.59
2019-03-03T05:19:39.061Z,87.59
2019-03-03T05:20:39.033Z,87.38
2019-03-03T05:21:39.019Z,87.27
2019-03-03T05:22:39.014Z,87.17
2019-03-03T05:23:39.000Z,87.38
2019-03-03T05:24:38.987Z,87.65
2019-03-03T05:25:38.975Z,86.97
2019-03-03T05:26:38.967Z,87.17
2019-03-03T05:27:38.966Z,87.17
2019-03-03T05:28:38.957Z,86.87
2019-03-03T05:29:38.943Z,87.65
2019-03-03T05:30:38.931Z,87.38
2019-03-03T05:31:38.918Z,86.41
2019-03-03T05:32:38.949Z,86.97
2019-03-03T05:33:38.898Z,86.82
2019-03-03T05:34:38.891Z,86.82
2019-03-03T05:35:38.875Z,87.17
2019-03-03T05:36:38.870Z,86.82
2019-03-03T05:37:38.847Z,86.61
2019-03-03T05:38:38.839Z,86.93
2019-03-03T05:39:38.835Z,86.82
2019-03-03T05:40:38.808Z,86.93
2019-03-03T05:41:38.801Z,86.72
2019-03-03T05:42:38.794Z,86.72
2019-03-03T05:43:38.780Z,86.82
2019-03-03T05:44:38.781Z,86.52
2019-03-03T05:45:38.803Z,86.52
2019-03-03T05:46:38.753Z,86.41
2019-03-03T05:47:38.744Z,86.41
2019-03-03T05:48:38.727Z,86.21
2019-03-03T05:49:38.724Z,86.52
2019-03-03T05:50:38.716Z,86.00
2019-03-03T05:51:38.708Z,86.00
2019-03-03T05:52:38.720Z,85.38
2019-03-03T05:53:38.675Z,85.38
2019-03-03T05:54:38.661Z,86.00
2019-03-03T05:55:38.653Z,86.10
2019-03-03T05:56:38.696Z,86.00
2019-03-03T05:57:38.649Z,85.89
2019-03-03T05:58:38.620Z,85.69
2019-03-03T05:59:38.602Z,85.69
2019-03-03T06:00:38.597Z,85.59
2019-03-03T06:01:38.596Z,85.79
2019-03-03T06:02:38.583Z,85.65
2019-03-03T06:03:38.569Z,85.69
2019-03-03T06:04:38.601Z,85.69
2019-03-03T06:05:38.575Z,85.55
2019-03-03T06:06:38.531Z,85.55
2019-03-03T06:07:38.527Z,85.75
2019-03-03T06:08:38.550Z,85.65
2019-03-03T06:09:38.502Z,85.75
2019-03-03T06:10:38.485Z,85.65
2019-03-03T06:11:38.470Z,85.96
2019-03-03T06:12:38.472Z,85.86
2019-03-03T06:13:38.455Z,85.86
2019-03-03T06:14:38.453Z,85.24
2019-03-03T06:15:38.430Z,85.24
2019-03-03T06:16:38.462Z,85.14
2019-03-03T06:17:38.407Z,85.34
2019-03-03T06:18:38.401Z,85.24
2019-03-03T06:19:38.409Z,85.24
2019-03-03T06:20:38.383Z,85.61
2019-03-03T06:21:38.361Z,85.24
2019-03-03T06:22:38.367Z,85.61
2019-03-03T06:23:38.342Z,85.51
2019-03-03T06:24:38.343Z,85.51
2019-03-03T06:25:38.326Z,85.41
2019-03-03T06:26:38.311Z,85.10
2019-03-03T06:27:38.307Z,84.79
2019-03-03T06:28:38.286Z,85.20
2019-03-03T06:29:38.278Z,85.71
2019-03-03T06:30:38.272Z,84.89
2019-03-03T06:31:38.271Z,84.38
2019-03-03T06:32:38.243Z,84.38
2019-03-03T06:33:38.230Z,84.27
2019-03-03T06:34:38.216Z,84.79
2019-03-03T06:35:38.202Z,84.27
2019-03-03T06:36:38.206Z,84.48
2019-03-03T06:37:38.182Z,84.17
2019-03-03T06:38:38.178Z,84.23
2019-03-03T06:39:38.158Z,84.44
2019-03-03T06:40:38.152Z,84.27
2019-03-03T06:41:38.146Z,84.48
2019-03-03T06:42:38.146Z,84.34
2019-03-03T06:43:38.128Z,84.23
2019-03-03T06:44:38.128Z,83.72
2019-03-03T06:45:38.101Z,83.72
2019-03-03T06:46:38.087Z,83.51
2019-03-03T06:47:38.092Z,83.83
2019-03-03T06:48:38.094Z,84.13
2019-03-03T06:49:38.060Z,83.41
2019-03-03T06:50:38.110Z,83.20
2019-03-03T06:51:38.039Z,83.20
2019-03-03T06:52:38.029Z,83.20
2019-03-03T06:53:38.021Z,83.17
2019-03-03T06:54:37.999Z,83.58
2019-03-03T06:55:37.991Z,83.89
2019-03-03T06:56:37.989Z,83.48
2019-03-03T06:57:37.976Z,83.06
2019-03-03T06:58:37.959Z,83.06
2019-03-03T06:59:37.961Z,82.65
2019-03-03T07:00:37.931Z,81.93
2019-03-03T07:01:37.935Z,82.24
2019-03-03T07:02:37.912Z,82.24
2019-03-03T07:03:37.903Z,82.34
2019-03-03T07:04:37.904Z,81.52
2019-03-03T07:05:37.874Z,81.48
2019-03-03T07:06:37.869Z,81.73
2019-03-03T07:07:37.914Z,82.34
2019-03-03T07:08:37.848Z,82.24
2019-03-03T07:09:37.831Z,81.62
2019-03-03T07:10:37.828Z,81.52
2019-03-03T07:11:37.845Z,81.48
2019-03-03T07:12:37.801Z,81.18
2019-03-03T07:13:37.792Z,81.38
2019-03-03T07:14:37.797Z,81.18
2019-03-03T07:15:37.770Z,80.97
2019-03-03T07:16:37.760Z,80.77
2019-03-03T07:17:37.746Z,80.97
2019-03-03T07:18:37.736Z,80.87
2019-03-03T07:19:37.731Z,80.77
2019-03-03T07:20:37.710Z,80.42
2019-03-03T07:21:37.704Z,80.46
2019-03-03T07:22:37.694Z,80.97
2019-03-03T07:23:37.680Z,80.66
2019-03-03T07:24:37.679Z,80.63
2019-03-03T07:25:37.703Z,80.32
2019-03-03T07:26:37.647Z,80.52
2019-03-03T07:27:37.644Z,80.52
2019-03-03T07:28:37.646Z,80.42
2019-03-03T07:29:37.610Z,80.01
2019-03-03T07:30:37.611Z,79.60
2019-03-03T07:31:37.676Z,79.60
2019-03-03T07:32:37.583Z,80.01
2019-03-03T07:33:37.572Z,79.80
2019-03-03T07:34:37.611Z,79.36
2019-03-03T07:35:37.547Z,78.94
2019-03-03T07:36:37.539Z,78.74
2019-03-03T07:37:37.521Z,78.85
2019-03-03T07:38:37.513Z,79.25
2019-03-03T07:39:37.563Z,78.53
2019-03-03T07:40:37.495Z,78.88
2019-03-03T07:41:37.488Z,78.74
2019-03-03T07:42:37.468Z,78.12
2019-03-03T07:43:37.477Z,78.64
2019-03-03T07:44:37.458Z,78.23
2019-03-03T07:45:37.430Z,78.64
2019-03-03T07:46:37.480Z,78.33
2019-03-03T07:47:37.416Z,77.61
2019-03-03T07:48:37.402Z,77.71
2019-03-03T07:49:37.384Z,77.71
2019-03-03T07:50:37.511Z,77.51
2019-03-03T07:51:37.362Z,77.71
2019-03-03T07:52:37.350Z,77.40
2019-03-03T07:53:37.353Z,77.10
2019-03-03T07:54:37.324Z,77.51
2019-03-03T07:55:37.323Z,76.96
2019-03-03T07:56:37.321Z,77.00
2019-03-03T07:57:37.313Z,76.55
2019-03-03T07:58:37.278Z,76.55
2019-03-03T07:59:37.274Z,76.55
2019-03-03T08:00:37.321Z,76.55
2019-03-03T08:01:37.254Z,76.86
2019-03-03T08:02:37.248Z,76.96
2019-03-03T08:03:37.234Z,76.86
2019-03-03T08:04:37.222Z,76.14
2019-03-03T08:05:37.220Z,75.83
2019-03-03T08:06:37.192Z,75.21
2019-03-03T08:07:37.209Z,75.42
2019-03-03T08:08:37.176Z,75.69
2019-03-03T08:09:37.174Z,75.18
2019-03-03T08:10:37.162Z,74.66
2019-03-03T08:11:37.359Z,74.57
2019-03-03T08:12:37.124Z,74.66
2019-03-03T08:13:37.118Z,74.57
2019-03-03T08:14:37.109Z,74.66
2019-03-03T08:15:37.088Z,74.66
2019-03-03T08:16:37.085Z,73.74
2019-03-03T08:17:37.089Z,74.26
2019-03-03T08:18:37.065Z,74.46
2019-03-03T08:19:37.056Z,73.95
2019-03-03T08:20:37.032Z,74.26
2019-03-03T08:21:37.023Z,74.26
2019-03-03T08:22:37.024Z,73.85
2019-03-03T08:23:37.040Z,73.54
2019-03-03T08:24:36.993Z,73.61
2019-03-03T08:25:36.976Z,73.30
2019-03-03T08:26:36.973Z,73.10
2019-03-03T08:27:36.959Z,73.61
2019-03-03T08:28:36.946Z,73.02
2019-03-03T08:29:36.937Z,73.61
2019-03-03T08:30:36.937Z,73.19
2019-03-03T08:31:36.915Z,73.50
2019-03-03T08:32:36.937Z,73.74
2019-03-03T08:33:37.082Z,73.40
2019-03-03T08:34:36.989Z,73.40
2019-03-03T08:35:36.937Z,72.27
2019-03-03T08:36:36.853Z,72.07
2019-03-03T08:37:36.925Z,72.48
2019-03-03T08:38:36.872Z,72.27
2019-03-03T08:39:36.825Z,72.14
2019-03-03T08:40:36.863Z,71.73
2019-03-03T08:41:36.803Z,72.34
2019-03-03T08:42:36.845Z,71.93
2019-03-03T08:43:36.800Z,72.03
2019-03-03T08:44:36.766Z,71.93
2019-03-03T08:45:36.756Z,71.73
2019-03-03T08:46:36.759Z,71.62
2019-03-03T08:47:36.750Z,71.83
2019-03-03T08:48:36.732Z,72.03
2019-03-03T08:49:36.748Z,72.24
2019-03-03T08:50:36.709Z,71.73
2019-03-03T08:51:36.706Z,71.62
2019-03-03T08:52:36.671Z,71.32
2019-03-03T08:53:36.677Z,71.11
2019-03-03T08:54:36.783Z,71.01
2019-03-03T08:55:36.768Z,71.22
2019-03-03T08:56:36.847Z,71.22
2019-03-03T08:57:36.690Z,71.01
2019-03-03T08:58:36.726Z,71.42
2019-03-03T08:59:36.676Z,71.73
2019-03-03T09:00:36.663Z,71.93
2019-03-03T09:01:36.646Z,71.69
2019-03-03T09:02:36.617Z,71.73
2019-03-03T09:03:36.587Z,71.49
2019-03-03T09:04:36.541Z,71.62
2019-03-03T09:05:36.652Z,72.00
2019-03-03T09:06:36.519Z,72.11
2019-03-03T09:07:36.644Z,72.96
2019-03-03T09:08:36.516Z,73.74
2019-03-03T09:09:36.561Z,73.16
2019-03-03T09:10:36.584Z,74.19
2019-03-03T09:11:36.469Z,74.39
2019-03-03T09:12:36.462Z,74.08
2019-03-03T09:13:36.445Z,74.49
2019-03-03T09:14:36.514Z,73.98
2019-03-03T09:15:36.415Z,74.29
2019-03-03T09:16:36.503Z,74.60
2019-03-03T09:17:36.724Z,74.08
2019-03-03T09:18:36.840Z,73.06
2019-03-03T09:19:36.485Z,74.08
2019-03-03T09:20:36.362Z,73.68
2019-03-03T09:21:36.395Z,74.08
2019-03-03T09:22:36.360Z,73.03
2019-03-03T09:23:36.330Z,74.29
2019-03-03T09:24:36.397Z,73.16
2019-03-03T09:25:36.318Z,73.06
2019-03-03T09:26:36.301Z,73.88
2019-03-03T09:27:36.278Z,73.36
2019-03-03T09:28:36.368Z,72.44
2019-03-03T09:29:36.270Z,73.13
2019-03-03T09:30:36.409Z,73.47
2019-03-03T09:31:36.360Z,73.33
2019-03-03T09:32:36.226Z,73.33
2019-03-03T09:33:36.878Z,72.44
2019-03-03T09:34:36.219Z,72.72
2019-03-03T09:35:36.191Z,72.31
2019-03-03T09:36:36.209Z,72.41
2019-03-03T09:37:36.169Z,72.41
2019-03-03T09:38:36.166Z,71.90
2019-03-03T09:39:36.318Z,71.59
2019-03-03T09:40:36.146Z,72.00
2019-03-03T09:41:36.135Z,72.00
2019-03-03T09:42:36.116Z,71.49
2019-03-03T09:43:36.112Z,71.69
2019-03-03T09:44:36.122Z,71.28
2019-03-03T09:45:36.085Z,71.28
2019-03-03T09:46:36.084Z,71.49
2019-03-03T09:47:36.063Z,71.18
2019-03-03T09:48:36.051Z,70.64
2019-03-03T09:49:36.048Z,70.64
2019-03-03T09:50:36.032Z,70.53
2019-03-03T09:51:36.023Z,70.23
2019-03-03T09:52:36.031Z,70.12
2019-03-03T09:53:35.989Z,70.23
2019-03-03T09:54:35.985Z,70.12
2019-03-03T09:55:35.974Z,70.03
2019-03-03T09:56:35.969Z,70.03
2019-03-03T09:57:35.954Z,70.12
2019-03-03T09:58:35.987Z,70.74
2019-03-03T09:59:35.928Z,70.64
2019-03-03T10:00:35.950Z,71.32
2019-03-03T10:01:35.900Z,71.22
2019-03-03T10:02:35.894Z,71.15
2019-03-03T10:03:35.903Z,71.04
2019-03-03T10:04:35.911Z,71.04
2019-03-03T10:05:35.860Z,70.74
2019-03-03T10:06:35.863Z,70.53
2019-03-03T10:07:35.915Z,70.74
2019-03-03T10:08:35.831Z,70.43
2019-03-03T10:09:35.808Z,70.33
2019-03-03T10:10:35.844Z,69.99
2019-03-03T10:11:35.785Z,70.29
2019-03-03T10:12:35.789Z,70.20
2019-03-03T10:13:35.763Z,69.99
2019-03-03T10:14:35.753Z,69.99
2019-03-03T10:15:35.750Z,69.27
2019-03-03T10:16:35.736Z,69.48
2019-03-03T10:17:35.736Z,69.48
2019-03-03T10:18:35.710Z,69.27
2019-03-03T10:19:35.704Z,69.27
2019-03-03T10:20:35.689Z,69.48
2019-03-03T10:21:35.688Z,69.58
2019-03-03T10:22:35.664Z,69.89
2019-03-03T10:23:35.666Z,69.79
2019-03-03T10:24:35.672Z,69.89
2019-03-03T10:25:35.677Z,69.99
2019-03-03T10:26:35.624Z,69.99
2019-03-03T10:27:35.612Z,69.99
2019-03-03T10:28:35.600Z,69.99
2019-03-03T10:29:35.600Z,70.61
2019-03-03T10:30:35.580Z,71.62
2019-03-03T10:31:35.566Z,71.53
2019-03-03T10:32:35.563Z,71.53
2019-03-03T10:33:35.543Z,71.62
2019-03-03T10:34:35.530Z,72.28
2019-03-03T10:35:35.539Z,72.58
2019-03-03T10:36:35.519Z,71.94
2019-03-03T10:37:35.503Z,72.96
2019-03-03T10:38:36.350Z,73.06
2019-03-03T10:39:35.525Z,73.91
2019-03-03T10:40:35.467Z,73.50
2019-03-03T10:41:35.457Z,74.11
2019-03-03T10:42:35.454Z,73.40
2019-03-03T10:43:35.478Z,74.11
2019-03-03T10:44:35.425Z,74.32
2019-03-03T10:45:35.408Z,74.02
2019-03-03T10:46:35.406Z,74.11
2019-03-03T10:47:35.395Z,74.02
2019-03-03T10:48:35.385Z,74.11
2019-03-03T10:49:35.404Z,73.20
2019-03-03T10:50:35.358Z,72.89
2019-03-03T10:51:35.347Z,74.08
2019-03-03T10:52:35.330Z,72.96
2019-03-03T10:53:35.331Z,73.57
2019-03-03T10:54:35.484Z,74.29
2019-03-03T10:55:35.344Z,73.68
2019-03-03T10:56:35.310Z,74.08
2019-03-03T10:57:35.287Z,74.08
2019-03-03T10:58:35.306Z,73.57
2019-03-03T10:59:35.263Z,74.08
2019-03-03T11:00:35.319Z,73.98
2019-03-03T11:01:35.232Z,73.85
2019-03-03T11:02:35.216Z,74.29
2019-03-03T11:03:35.252Z,73.27
2019-03-03T11:04:35.210Z,73.98
2019-03-03T11:05:35.215Z,73.98
2019-03-03T11:06:35.175Z,73.88
2019-03-03T11:07:35.204Z,74.19
2019-03-03T11:08:35.158Z,73.78
2019-03-03T11:09:35.157Z,74.35
2019-03-03T11:10:35.160Z,74.05
2019-03-03T11:11:35.129Z,73.44
2019-03-03T11:12:35.113Z,74.35
2019-03-03T11:13:35.113Z,73.85
2019-03-03T11:14:35.101Z,73.94
2019-03-03T11:15:35.089Z,74.05
2019-03-03T11:16:35.120Z,73.85
2019-03-03T11:17:35.089Z,74.05
2019-03-03T11:18:35.042Z,73.85
2019-03-03T11:19:35.040Z,74.05
2019-03-03T11:20:35.050Z,73.64
2019-03-03T11:21:35.015Z,73.03
2019-03-03T11:22:35.020Z,73.13
2019-03-03T11:23:34.993Z,72.82
2019-03-03T11:24:34.973Z,73.74
2019-03-03T11:25:34.977Z,73.44
2019-03-03T11:26:34.981Z,72.72
2019-03-03T11:27:34.972Z,72.21
2019-03-03T11:28:34.932Z,72.11
2019-03-03T11:29:34.921Z,72.21
2019-03-03T11:30:36.756Z,72.31
2019-03-03T11:31:34.902Z,72.00
2019-03-03T11:32:34.896Z,72.38
2019-03-03T11:33:34.881Z,72.00
2019-03-03T11:34:34.877Z,71.19
2019-03-03T11:35:34.854Z,71.49
2019-03-03T11:36:34.848Z,71.29
2019-03-03T11:37:34.863Z,71.80
2019-03-03T11:38:34.831Z,71.39
2019-03-03T11:39:34.823Z,71.56
2019-03-03T11:40:34.849Z,72.17
2019-03-03T11:41:34.808Z,71.66
2019-03-03T11:42:34.781Z,71.25
2019-03-03T11:43:34.775Z,71.56
2019-03-03T11:44:34.768Z,71.39
2019-03-03T11:45:34.788Z,70.64
2019-03-03T11:46:34.742Z,70.95
2019-03-03T11:47:34.725Z,71.08
2019-03-03T11:48:34.721Z,71.15
2019-03-03T11:49:34.713Z,71.25
2019-03-03T11:50:34.714Z,71.05
2019-03-03T11:51:34.690Z,71.15
2019-03-03T11:52:34.672Z,71.15
2019-03-03T11:53:34.662Z,70.84
2019-03-03T11:54:34.657Z,70.75
2019-03-03T11:55:34.641Z,70.84
2019-03-03T11:56:34.638Z,70.95
2019-03-03T11:57:34.640Z,71.15
2019-03-03T11:58:34.603Z,71.25
2019-03-03T11:59:34.603Z,71.70
2019-03-03T12:00:34.578Z,72.69
2019-03-03T12:01:34.613Z,73.23
2019-03-03T12:02:34.587Z,73.10
2019-03-03T12:03:34.551Z,73.40
2019-03-03T12:04:34.547Z,73.50
2019-03-03T12:05:34.534Z,74.22
2019-03-03T12:06:34.522Z,74.26
2019-03-03T12:07:34.520Z,74.35
2019-03-03T12:08:34.512Z,74.46
2019-03-03T12:09:34.532Z,74.56
2019-03-03T12:10:34.468Z,74.46
2019-03-03T12:11:34.479Z,74.05
2019-03-03T12:12:34.442Z,74.35
2019-03-03T12:13:34.448Z,75.07
2019-03-03T12:14:34.425Z,74.87
2019-03-03T12:15:34.486Z,76.71
2019-03-03T12:16:34.394Z,76.34
2019-03-03T12:17:34.531Z,77.01
2019-03-03T12:18:34.387Z,76.54
2019-03-03T12:19:34.386Z,76.43
2019-03-03T12:20:34.354Z,76.64
2019-03-03T12:21:34.366Z,76.64
2019-03-03T12:22:34.331Z,77.05
2019-03-03T12:23:34.321Z,77.26
2019-03-03T12:24:34.321Z,77.15
2019-03-03T12:25:34.301Z,77.15
2019-03-03T12:26:34.293Z,77.76
2019-03-03T12:27:34.296Z,76.95
2019-03-03T12:28:34.272Z,77.46
2019-03-03T12:29:34.262Z,78.28
2019-03-03T12:30:34.290Z,77.56
2019-03-03T12:31:34.305Z,78.28
2019-03-03T12:32:34.235Z,78.08
2019-03-03T12:33:34.217Z,78.17
2019-03-03T12:34:34.253Z,78.28
2019-03-03T12:35:34.220Z,78.69
2019-03-03T12:36:34.211Z,77.56
2019-03-03T12:37:34.172Z,78.14
2019-03-03T12:38:34.158Z,78.04
2019-03-03T12:39:34.163Z,78.28
2019-03-03T12:40:34.177Z,77.42
2019-03-03T12:41:34.138Z,77.53
2019-03-03T12:42:34.121Z,77.01
2019-03-03T12:43:34.112Z,78.04
2019-03-03T12:44:34.098Z,77.42
2019-03-03T12:45:34.105Z,77.01
2019-03-03T12:46:34.097Z,77.53
2019-03-03T12:47:34.086Z,77.63
2019-03-03T12:48:34.063Z,77.94
2019-03-03T12:49:34.039Z,77.42
2019-03-03T12:50:34.024Z,76.91
2019-03-03T12:51:34.023Z,76.88
2019-03-03T12:52:34.027Z,77.01
2019-03-03T12:53:34.025Z,77.01
2019-03-03T12:54:33.979Z,77.01
2019-03-03T12:55:33.980Z,77.12
2019-03-03T12:56:33.963Z,77.12
2019-03-03T12:57:33.952Z,76.67
2019-03-03T12:58:33.975Z,76.61
2019-03-03T12:59:33.940Z,76.71
2019-03-03T13:00:33.925Z,76.26
2019-03-03T13:01:33.903Z,76.78
2019-03-03T13:02:33.905Z,76.57
2019-03-03T13:03:33.887Z,76.98